Portada
METAR-TAF:

METAR-TAF

Aeroports :

Mineralnye Vody, Rússia

latitud: 44-14N, longitud: 043-04E, altitud: 314 m

Observació

L'informe es va fer fa 22 minuts, a les 06:30 UTC
Vent 4 kt del Est
Temperatura 8°C
Humitat 57%
Pressió 1005 hPa
Visibilitat 10 km o més

METAR: URMM 290630Z 09002MPS 9999 NSC 08/00 Q1005 R12/090070 NOSIG RMK QFE726/0968

Hora: 10:52 (06:52 UTC)

Pronòstic

L'informe es va fer fa 1 hora i 52 minuts, a les 05:00 UTC
Pronòstic vàlid del 29 a les 06 UTC al 30 a les 06 UTC
Vent 6 kt del Est amb ràfegues de 16 kt
Visibilitat 10 km o més
Evolucionant progressivament
l' 29 a les 07 UTC al 29 a les 09 UTC
Vent 10 kt del Est/Sud-Est amb ràfegues de 23 kt
Evolucionant progressivament
l' 29 a les 23 UTC al 30 a les 01 UTC
Vent 6 kt del Oest/Nord-Oest amb ràfegues de 16 kt

TAF: URMM 290500Z 2906/3006 10003G08MPS 9999 NSC TX15/2912Z TN02/3002Z BECMG 2907/2909 11005G12MPS BECMG 2923/3001 29003G08MPS

Observacions i pronòstics meteorològics de més de 4000 aeroports (METAR i TAF).

Les estacions disponibles són els punts grocs i vermells al mapa.

Posi el ratolí al punt desitjat per veure el nom de l'estació.

Feu clic per veure les observacions i els pronòstics meteorològics.

Per canviar el mapa: feu clic els botons verds amb una creu de color negre per apropar; al botó verd amb un guió per allunyar la imatge; o en les fletxes verdes per a mapes adjacents.


METAR-TAF: